createdAt,value
2019-05-21T00:00:33.583Z,12.57
2019-05-21T00:03:02.645Z,11.43
2019-05-21T00:05:33.528Z,13.30
2019-05-21T00:08:02.688Z,12.97
2019-05-21T00:10:32.302Z,15.23
2019-05-21T00:13:07.699Z,14.37
2019-05-21T00:15:37.086Z,15.23
2019-05-21T00:18:06.743Z,15.20
2019-05-21T00:20:35.866Z,14.87
2019-05-21T00:23:04.951Z,17.50
2019-05-21T00:25:34.323Z,15.80
2019-05-21T00:28:44.574Z,18.00
2019-05-21T00:31:49.470Z,22.17
2019-05-21T00:34:54.977Z,19.40
2019-05-21T00:37:59.896Z,19.77
2019-05-21T00:41:07.943Z,19.83
2019-05-21T00:43:46.702Z,18.40
2019-05-21T00:46:16.856Z,19.03
2019-05-21T00:48:47.019Z,18.23
2019-05-21T00:51:18.865Z,17.80
2019-05-21T00:53:51.189Z,23.00
2019-05-21T00:56:22.689Z,18.23
2019-05-21T00:58:51.814Z,20.13
2019-05-21T01:01:29.040Z,19.47
2019-05-21T01:04:02.295Z,16.77
2019-05-21T01:06:31.397Z,19.50
2019-05-21T01:09:00.701Z,19.83
2019-05-21T01:11:29.861Z,16.70
2019-05-21T01:13:58.983Z,17.57
2019-05-21T01:16:28.123Z,18.70
2019-05-21T01:18:57.215Z,16.10
2019-05-21T01:21:26.298Z,16.50
2019-05-21T01:23:55.393Z,16.90
2019-05-21T01:26:24.878Z,16.73
2019-05-21T01:28:57.838Z,15.80
2019-05-21T01:31:27.993Z,14.43
2019-05-21T01:33:57.064Z,15.00
2019-05-21T01:36:33.926Z,14.77
2019-05-21T01:38:59.285Z,15.87
2019-05-21T01:41:30.536Z,12.90
2019-05-21T01:43:59.619Z,14.30
2019-05-21T01:46:31.714Z,12.87
2019-05-21T01:49:00.880Z,13.33
2019-05-21T01:51:30.898Z,11.63
2019-05-21T01:54:05.817Z,11.60
2019-05-21T01:56:34.960Z,11.50
2019-05-21T01:59:05.320Z,12.43
2019-05-21T02:01:38.800Z,10.83
2019-05-21T02:04:17.262Z,10.40
2019-05-21T02:06:49.289Z,11.03
2019-05-21T02:09:18.926Z,10.73
2019-05-21T02:11:49.085Z,10.77
2019-05-21T02:14:25.066Z,10.77
2019-05-21T02:16:54.147Z,11.70
2019-05-21T02:19:26.629Z,10.80
2019-05-21T02:21:55.819Z,11.60
2019-05-21T02:24:24.845Z,8.50
2019-05-21T02:26:55.951Z,9.43
2019-05-21T02:29:25.920Z,10.40
2019-05-21T02:31:56.962Z,8.80
2019-05-21T02:34:27.457Z,9.40
2019-05-21T02:36:57.899Z,9.53
2019-05-21T02:39:29.688Z,9.77
2019-05-21T02:42:01.393Z,10.10
2019-05-21T02:44:30.503Z,9.27
2019-05-21T02:47:01.320Z,10.90
2019-05-21T02:49:33.449Z,10.73
2019-05-21T02:52:05.760Z,8.63
2019-05-21T02:54:41.520Z,10.10
2019-05-21T02:57:11.689Z,10.60
2019-05-21T02:59:44.118Z,10.70
2019-05-21T03:02:34.576Z,11.97
2019-05-21T03:05:07.395Z,11.27
2019-05-21T03:07:39.313Z,10.27
2019-05-21T03:10:15.324Z,12.20
2019-05-21T03:12:46.559Z,11.40
2019-05-21T03:15:21.434Z,12.70
2019-05-21T03:17:52.896Z,11.43
2019-05-21T03:20:25.205Z,14.17
2019-05-21T03:22:54.756Z,11.87
2019-05-21T03:25:25.355Z,12.40
2019-05-21T03:27:54.421Z,14.17
2019-05-21T03:30:23.494Z,11.00
2019-05-21T03:32:52.561Z,12.97
2019-05-21T03:35:21.684Z,14.17
2019-05-21T03:37:51.152Z,15.10
2019-05-21T03:40:21.927Z,12.17
2019-05-21T03:42:52.313Z,13.07
2019-05-21T03:45:23.879Z,12.37
2019-05-21T03:47:53.100Z,12.63
2019-05-21T03:50:22.373Z,13.60
2019-05-21T03:52:53.324Z,12.10
2019-05-21T03:55:23.523Z,13.10
2019-05-21T03:57:57.961Z,13.40
2019-05-21T04:00:33.293Z,9.70
2019-05-21T04:03:02.369Z,10.47
2019-05-21T04:05:34.800Z,10.23
2019-05-21T04:08:03.883Z,11.50
2019-05-21T04:10:36.011Z,9.30
2019-05-21T04:13:09.107Z,10.60
2019-05-21T04:15:47.478Z,10.20
2019-05-21T04:18:26.918Z,9.63
2019-05-21T04:21:01.101Z,8.80
2019-05-21T04:23:34.719Z,10.63
2019-05-21T04:26:04.134Z,9.57
2019-05-21T04:28:34.425Z,9.50
2019-05-21T04:31:05.213Z,9.77
2019-05-21T04:33:34.260Z,8.50
2019-05-21T04:36:03.325Z,9.10
2019-05-21T04:38:32.376Z,8.53
2019-05-21T04:41:02.652Z,9.03
2019-05-21T04:43:31.702Z,8.27
2019-05-21T04:46:03.273Z,8.53
2019-05-21T04:48:32.390Z,7.67
2019-05-21T04:51:03.234Z,8.20
2019-05-21T04:53:32.649Z,7.63
2019-05-21T04:56:03.164Z,7.50
2019-05-21T04:58:33.132Z,5.90
2019-05-21T05:01:10.339Z,7.17
2019-05-21T05:03:44.738Z,6.13
2019-05-21T05:06:13.791Z,5.80
2019-05-21T05:08:43.891Z,6.63
2019-05-21T05:11:12.986Z,6.73
2019-05-21T05:13:42.034Z,6.77
2019-05-21T05:16:11.098Z,6.37
2019-05-21T05:18:40.152Z,6.83
2019-05-21T05:21:09.555Z,5.97
2019-05-21T05:23:39.198Z,5.53
2019-05-21T05:26:08.366Z,7.33
2019-05-21T05:28:37.814Z,5.73
2019-05-21T05:31:06.885Z,5.27
2019-05-21T05:33:35.936Z,5.20
2019-05-21T05:36:08.808Z,5.00
2019-05-21T05:38:37.895Z,5.13
2019-05-21T05:41:07.043Z,5.10
2019-05-21T05:43:38.844Z,4.23
2019-05-21T05:46:09.411Z,4.70
2019-05-21T05:48:46.248Z,3.77
2019-05-21T05:51:19.435Z,3.63
2019-05-21T05:53:58.175Z,4.10
2019-05-21T05:56:28.408Z,3.67
2019-05-21T05:59:04.076Z,3.57
2019-05-21T06:01:36.246Z,3.23
2019-05-21T06:04:05.402Z,3.93
2019-05-21T06:06:35.541Z,3.70
2019-05-21T06:09:05.816Z,2.80
2019-05-21T06:11:36.951Z,2.20
2019-05-21T06:14:11.498Z,2.80
2019-05-21T06:16:40.599Z,2.93
2019-05-21T06:19:09.927Z,2.27
2019-05-21T06:21:42.097Z,2.70
2019-05-21T06:24:13.464Z,2.40
2019-05-21T06:26:43.328Z,2.33
2019-05-21T06:29:14.966Z,2.60
2019-05-21T06:31:48.953Z,2.03
2019-05-21T06:34:18.021Z,1.70
2019-05-21T06:36:51.712Z,2.40
2019-05-21T06:39:23.213Z,2.13
2019-05-21T06:41:52.286Z,2.43
2019-05-21T06:44:21.342Z,2.23
2019-05-21T06:46:50.395Z,2.37
2019-05-21T06:49:19.728Z,2.00
2019-05-21T06:51:50.388Z,2.00
2019-05-21T06:54:19.462Z,1.70
2019-05-21T06:56:50.565Z,2.10
2019-05-21T06:59:21.012Z,2.17
2019-05-21T07:01:51.895Z,1.40
2019-05-21T07:04:21.386Z,1.90
2019-05-21T07:06:53.657Z,1.90
2019-05-21T07:09:22.898Z,1.90
2019-05-21T07:11:51.993Z,1.80
2019-05-21T07:14:21.045Z,2.10
2019-05-21T07:16:50.470Z,2.00
2019-05-21T07:19:42.139Z,1.63
2019-05-21T07:22:13.043Z,1.23
2019-05-21T07:24:42.006Z,1.60
2019-05-21T07:27:20.861Z,1.60
2019-05-21T07:29:53.133Z,1.53
2019-05-21T07:32:26.197Z,1.43
2019-05-21T07:35:00.492Z,1.50
2019-05-21T07:37:29.868Z,1.30
2019-05-21T07:40:01.335Z,1.53
2019-05-21T07:42:33.025Z,1.37
2019-05-21T07:45:06.143Z,1.20
2019-05-21T07:47:47.261Z,1.90
2019-05-21T07:50:26.892Z,1.23
2019-05-21T07:52:59.656Z,1.40
2019-05-21T07:55:30.757Z,1.63
2019-05-21T07:58:02.702Z,1.60
2019-05-21T08:00:34.981Z,1.57
2019-05-21T08:03:04.308Z,1.93
2019-05-21T08:05:34.840Z,2.20
2019-05-21T08:08:06.392Z,1.53
2019-05-21T08:10:35.435Z,2.13
2019-05-21T08:13:05.862Z,2.40
2019-05-21T08:15:35.285Z,1.57
2019-05-21T08:18:10.244Z,1.67
2019-05-21T08:20:42.286Z,1.93
2019-05-21T08:23:11.676Z,2.60
2019-05-21T08:25:41.035Z,2.47
2019-05-21T08:28:14.552Z,2.57
2019-05-21T08:30:44.014Z,2.40
2019-05-21T08:33:13.241Z,2.40
2019-05-21T08:35:43.079Z,2.50
2019-05-21T08:38:12.547Z,2.10
2019-05-21T08:40:42.095Z,2.80
2019-05-21T08:43:12.918Z,2.43
2019-05-21T08:45:44.158Z,2.00
2019-05-21T08:48:28.376Z,2.37
2019-05-21T08:50:57.460Z,2.50
2019-05-21T08:53:26.588Z,2.53
2019-05-21T08:55:56.034Z,2.60
2019-05-21T08:58:26.725Z,2.20
2019-05-21T09:00:56.060Z,2.30
2019-05-21T09:03:26.442Z,2.00
2019-05-21T09:05:56.079Z,1.17
2019-05-21T09:08:25.580Z,1.60
2019-05-21T09:10:57.851Z,1.67
2019-05-21T09:13:28.362Z,1.80
2019-05-21T09:15:57.483Z,2.10
2019-05-21T09:18:29.284Z,1.83
2019-05-21T09:20:59.900Z,1.70
2019-05-21T09:23:38.168Z,1.70
2019-05-21T09:26:07.573Z,2.00
2019-05-21T09:28:36.667Z,2.47
2019-05-21T09:31:06.590Z,1.80
2019-05-21T09:33:36.912Z,1.83
2019-05-21T09:36:07.498Z,2.37
2019-05-21T09:38:36.597Z,2.17
2019-05-21T09:41:05.745Z,2.30
2019-05-21T09:43:34.843Z,1.70
2019-05-21T09:46:04.944Z,2.50
2019-05-21T09:48:35.862Z,2.10
2019-05-21T09:51:05.185Z,2.33
2019-05-21T09:53:34.253Z,1.77
2019-05-21T09:56:22.276Z,2.10
2019-05-21T09:58:53.221Z,3.17
2019-05-21T10:01:30.036Z,2.20
2019-05-21T10:04:02.268Z,2.20
2019-05-21T10:06:36.358Z,2.47
2019-05-21T10:09:09.705Z,2.37
2019-05-21T10:11:41.292Z,2.53
2019-05-21T10:14:13.229Z,2.00
2019-05-21T10:16:45.331Z,1.90
2019-05-21T10:19:14.818Z,1.98
2019-05-21T10:21:44.974Z,2.40
2019-05-21T10:24:18.097Z,1.73
2019-05-21T10:26:47.215Z,2.60
2019-05-21T10:29:17.072Z,2.30
2019-05-21T10:31:48.516Z,1.77
2019-05-21T10:34:16.923Z,1.90
2019-05-21T10:36:46.023Z,2.03
2019-05-21T10:39:15.117Z,3.20
2019-05-21T10:41:46.167Z,1.87
2019-05-21T10:44:22.776Z,2.20
2019-05-21T10:46:56.991Z,2.83
2019-05-21T10:49:26.375Z,3.23
2019-05-21T10:51:57.438Z,2.93
2019-05-21T10:54:26.506Z,2.40
2019-05-21T10:56:55.605Z,2.37
2019-05-21T10:59:24.682Z,2.83
2019-05-21T11:02:10.893Z,3.10
2019-05-21T11:04:59.473Z,3.80
2019-05-21T11:07:28.846Z,3.00
2019-05-21T11:09:57.913Z,3.13
2019-05-21T11:12:26.983Z,3.17
2019-05-21T11:14:56.095Z,2.77
2019-05-21T11:17:26.226Z,2.40
2019-05-21T11:19:57.252Z,2.30
2019-05-21T11:22:26.664Z,2.63
2019-05-21T11:24:55.716Z,2.63
2019-05-21T11:27:30.413Z,2.13
2019-05-21T11:30:01.271Z,2.30
2019-05-21T11:32:30.963Z,2.30
2019-05-21T11:35:02.607Z,2.90
2019-05-21T11:37:31.972Z,2.50
2019-05-21T11:40:08.663Z,2.27
2019-05-21T11:42:41.769Z,3.63
2019-05-21T11:45:12.599Z,1.93
2019-05-21T11:47:46.200Z,3.17
2019-05-21T11:50:22.569Z,2.67
2019-05-21T11:52:54.258Z,2.90
2019-05-21T11:58:20.063Z,2.30
2019-05-21T12:00:52.418Z,2.50
2019-05-21T12:03:21.542Z,3.37
2019-05-21T12:05:53.649Z,2.57
2019-05-21T12:08:24.270Z,2.47
2019-05-21T12:10:55.207Z,2.67
2019-05-21T12:13:24.582Z,2.73
2019-05-21T12:15:54.434Z,3.23
2019-05-21T12:18:23.655Z,2.60
2019-05-21T12:20:52.726Z,3.03
2019-05-21T12:23:23.210Z,2.30
2019-05-21T12:25:54.477Z,2.27
2019-05-21T12:28:25.133Z,2.07
2019-05-21T12:30:56.914Z,2.60
2019-05-21T12:33:26.011Z,2.33
2019-05-21T12:35:55.078Z,2.50
2019-05-21T12:38:25.526Z,2.63
2019-05-21T12:40:59.870Z,2.00
2019-05-21T12:43:28.958Z,2.50
2019-05-21T12:46:03.361Z,2.87
2019-05-21T12:48:32.403Z,2.80
2019-05-21T12:51:06.722Z,3.10
2019-05-21T12:53:37.109Z,3.20
2019-05-21T12:56:08.890Z,2.30
2019-05-21T12:58:37.942Z,2.57
2019-05-21T13:01:08.249Z,2.53
2019-05-21T13:03:37.453Z,3.40
2019-05-21T13:06:09.513Z,3.43
2019-05-21T13:08:44.513Z,3.60
2019-05-21T13:11:13.660Z,3.60
2019-05-21T13:13:45.955Z,3.77
2019-05-21T13:16:15.061Z,3.70
2019-05-21T13:18:44.140Z,3.30
2019-05-21T13:21:13.190Z,3.07
2019-05-21T13:23:48.580Z,2.97
2019-05-21T13:26:19.232Z,3.10
2019-05-21T13:28:48.378Z,3.50
2019-05-21T13:31:17.915Z,3.03
2019-05-21T13:33:51.721Z,3.13
2019-05-21T13:36:20.827Z,2.80
2019-05-21T13:38:51.262Z,2.73
2019-05-21T13:41:25.672Z,3.77
2019-05-21T13:43:54.755Z,3.50
2019-05-21T13:46:24.982Z,3.53
2019-05-21T13:48:54.061Z,3.67
2019-05-21T13:51:25.952Z,3.60
2019-05-21T13:53:55.025Z,3.93
2019-05-21T13:56:24.099Z,3.57
2019-05-21T13:58:53.184Z,4.30
2019-05-21T14:01:39.252Z,4.70
2019-05-21T14:03:58.402Z,4.20
2019-05-21T14:06:28.730Z,4.33
2019-05-21T14:09:02.234Z,4.30
2019-05-21T14:11:40.467Z,5.07
2019-05-21T14:14:09.810Z,4.23
2019-05-21T14:16:43.444Z,4.97
2019-05-21T14:19:17.679Z,4.40
2019-05-21T14:21:46.707Z,4.60
2019-05-21T14:24:15.928Z,5.07
2019-05-21T14:26:45.185Z,5.00
2019-05-21T14:29:18.763Z,4.90
2019-05-21T14:31:50.678Z,4.90
2019-05-21T14:34:23.844Z,4.27
2019-05-21T14:36:55.869Z,4.70
2019-05-21T14:39:25.048Z,4.47
2019-05-21T14:41:54.170Z,4.87
2019-05-21T14:44:24.410Z,5.23
2019-05-21T14:46:53.471Z,4.27
2019-05-21T14:49:23.869Z,4.83
2019-05-21T14:51:53.456Z,4.10
2019-05-21T14:54:26.838Z,4.00
2019-05-21T14:57:04.618Z,4.03
2019-05-21T14:59:33.708Z,3.30
2019-05-21T15:02:02.782Z,3.73
2019-05-21T15:04:32.453Z,3.37
2019-05-21T15:07:07.883Z,4.80
2019-05-21T15:09:37.048Z,4.13
2019-05-21T15:12:08.411Z,3.63
2019-05-21T15:14:40.024Z,4.43
2019-05-21T15:17:09.489Z,4.77
2019-05-21T15:19:45.647Z,4.00
2019-05-21T15:22:16.632Z,3.60
2019-05-21T15:24:45.670Z,4.70
2019-05-21T15:27:16.168Z,4.60
2019-05-21T15:29:45.636Z,4.07
2019-05-21T15:32:14.732Z,4.50
2019-05-21T15:34:43.773Z,4.80
2019-05-21T15:37:12.881Z,4.80
2019-05-21T15:39:44.475Z,4.53
2019-05-21T15:42:13.635Z,4.60
2019-05-21T15:44:42.714Z,3.83
2019-05-21T15:47:11.868Z,4.60
2019-05-21T15:49:40.933Z,5.00
2019-05-21T15:52:10.376Z,5.07
2019-05-21T15:54:43.591Z,4.87
2019-05-21T15:57:18.664Z,5.57
2019-05-21T15:59:50.154Z,5.00
2019-05-21T16:02:19.252Z,5.70
2019-05-21T16:04:48.283Z,5.60
2019-05-21T16:07:17.337Z,4.97
2019-05-21T16:09:53.602Z,4.40
2019-05-21T16:12:23.833Z,5.30
2019-05-21T16:14:52.910Z,4.47
2019-05-21T16:17:22.015Z,5.20
2019-05-21T16:19:54.705Z,5.50
2019-05-21T16:22:23.755Z,5.20
2019-05-21T16:24:52.789Z,4.87
2019-05-21T16:27:23.317Z,4.90
2019-05-21T16:29:52.846Z,4.77
2019-05-21T16:32:21.916Z,5.47
2019-05-21T16:34:51.048Z,6.00
2019-05-21T16:37:20.162Z,4.90
2019-05-21T16:39:50.757Z,5.30
2019-05-21T16:42:25.971Z,6.63
2019-05-21T16:44:58.053Z,5.30
2019-05-21T16:47:44.028Z,5.83
2019-05-21T16:50:01.112Z,4.87
2019-05-21T16:52:32.975Z,4.97
2019-05-21T16:55:06.899Z,4.43
2019-05-21T16:57:37.801Z,4.90
2019-05-21T17:00:07.958Z,5.10
2019-05-21T17:02:42.695Z,5.50
2019-05-21T17:05:11.957Z,4.80
2019-05-21T17:07:42.295Z,5.00
2019-05-21T17:10:14.852Z,3.60
2019-05-21T17:12:45.844Z,3.57
2019-05-21T17:15:16.286Z,4.13
2019-05-21T17:17:46.398Z,3.57
2019-05-21T17:20:16.013Z,3.90
2019-05-21T17:22:47.669Z,4.80
2019-05-21T17:25:19.573Z,4.30
2019-05-21T17:27:48.605Z,4.67
2019-05-21T17:30:17.717Z,4.60
2019-05-21T17:32:57.319Z,3.80
2019-05-21T17:35:26.446Z,4.40
2019-05-21T17:37:55.583Z,5.03
2019-05-21T17:40:24.818Z,4.60
2019-05-21T17:42:55.023Z,4.60
2019-05-21T17:45:24.423Z,4.63
2019-05-21T17:47:53.558Z,4.37
2019-05-21T17:50:22.784Z,4.80
2019-05-21T17:52:52.845Z,4.97
2019-05-21T17:55:22.007Z,4.50
2019-05-21T17:57:54.033Z,4.30
2019-05-21T18:00:54.301Z,4.53
2019-05-21T18:03:24.706Z,4.73
2019-05-21T18:05:55.665Z,4.27
2019-05-21T18:08:26.606Z,3.83
2019-05-21T18:10:57.772Z,3.50
2019-05-21T18:13:30.759Z,3.00
2019-05-21T18:16:02.700Z,3.77
2019-05-21T18:18:31.917Z,2.80
2019-05-21T18:21:07.584Z,3.80
2019-05-21T18:23:37.218Z,3.60
2019-05-21T18:26:09.598Z,3.97
2019-05-21T18:28:40.166Z,4.80
2019-05-21T18:31:11.940Z,4.47
2019-05-21T18:33:41.134Z,3.77
2019-05-21T18:36:15.568Z,4.40
2019-05-21T18:38:47.934Z,3.70
2019-05-21T18:41:19.996Z,3.60
2019-05-21T18:43:50.972Z,4.97
2019-05-21T18:46:23.889Z,4.30
2019-05-21T18:48:55.301Z,3.97
2019-05-21T18:51:24.731Z,4.70
2019-05-21T18:53:57.231Z,5.87
2019-05-21T18:56:26.388Z,5.00
2019-05-21T18:58:57.800Z,5.73
2019-05-21T19:01:27.153Z,5.80
2019-05-21T19:03:58.577Z,5.40
2019-05-21T19:06:27.736Z,6.60
2019-05-21T19:08:56.955Z,5.73
2019-05-21T19:11:26.046Z,6.40
2019-05-21T19:13:56.631Z,6.13
2019-05-21T19:16:29.835Z,6.40
2019-05-21T19:18:56.741Z,6.03
2019-05-21T19:21:30.611Z,6.70
2019-05-21T19:24:00.639Z,6.70
2019-05-21T19:26:36.058Z,7.07
2019-05-21T19:29:07.883Z,7.57
2019-05-21T19:31:36.546Z,7.40
2019-05-21T19:34:05.923Z,7.70
2019-05-21T19:36:36.997Z,7.60
2019-05-21T19:39:13.496Z,7.30
2019-05-21T19:41:44.078Z,8.17
2019-05-21T19:44:17.713Z,8.30
2019-05-21T19:46:48.166Z,8.20
2019-05-21T19:49:21.507Z,9.27
2019-05-21T19:51:55.065Z,8.40
2019-05-21T19:54:29.553Z,9.40
2019-05-21T19:56:58.673Z,9.10
2019-05-21T19:59:28.036Z,9.60
2019-05-21T20:01:58.134Z,8.73
2019-05-21T20:04:27.364Z,9.70
2019-05-21T20:06:56.427Z,8.87
2019-05-21T20:09:28.408Z,8.83
2019-05-21T20:11:57.774Z,9.00
2019-05-21T20:14:27.604Z,9.50
2019-05-21T20:16:56.688Z,8.97
2019-05-21T20:19:29.735Z,8.63
2019-05-21T20:21:59.266Z,9.33
2019-05-21T20:24:29.091Z,9.83
2019-05-21T20:27:00.660Z,8.80
2019-05-21T20:29:30.137Z,10.00
2019-05-21T20:32:01.343Z,10.67
2019-05-21T20:34:33.521Z,10.60
2019-05-21T20:37:03.232Z,10.87
2019-05-21T20:39:33.546Z,10.90
2019-05-21T20:42:09.093Z,10.93
2019-05-21T20:44:38.129Z,10.00
2019-05-21T20:47:09.153Z,10.90
2019-05-21T20:49:38.649Z,12.20
2019-05-21T20:52:18.056Z,13.17
2019-05-21T20:54:43.453Z,11.67
2019-05-21T20:57:14.657Z,10.23
2019-05-21T20:59:43.718Z,13.20
2019-05-21T21:02:14.745Z,12.47
2019-05-21T21:04:45.102Z,12.30
2019-05-21T21:07:18.091Z,11.47
2019-05-21T21:09:51.497Z,12.23
2019-05-21T21:12:20.904Z,12.60
2019-05-21T21:14:53.770Z,11.10
2019-05-21T21:17:23.220Z,12.37
2019-05-21T21:19:52.483Z,12.17
2019-05-21T21:22:21.601Z,13.73
2019-05-21T21:24:50.799Z,11.27
2019-05-21T21:27:19.897Z,12.13
2019-05-21T21:29:48.997Z,12.60
2019-05-21T21:32:21.034Z,12.50
2019-05-21T21:34:50.280Z,11.33
2019-05-21T21:37:19.646Z,13.27
2019-05-21T21:39:50.384Z,11.40
2019-05-21T21:42:19.532Z,11.53
2019-05-21T21:44:53.203Z,12.43
2019-05-21T21:47:22.707Z,12.03
2019-05-21T21:49:52.096Z,10.60
2019-05-21T21:52:23.153Z,14.93
2019-05-21T21:54:55.803Z,13.50
2019-05-21T21:57:25.292Z,12.10
2019-05-21T22:00:01.104Z,13.50
2019-05-21T22:02:32.062Z,13.90
2019-05-21T22:05:03.792Z,12.57
2019-05-21T22:07:33.251Z,11.93
2019-05-21T22:10:02.590Z,13.13
2019-05-21T22:12:34.852Z,14.63
2019-05-21T22:15:07.094Z,12.07
2019-05-21T22:17:42.916Z,13.33
2019-05-21T22:20:15.215Z,12.80
2019-05-21T22:22:54.935Z,13.43
2019-05-21T22:25:27.520Z,11.77
2019-05-21T22:27:56.681Z,12.93
2019-05-21T22:30:28.936Z,12.00
2019-05-21T22:33:07.712Z,14.00
2019-05-21T22:35:36.943Z,12.50
2019-05-21T22:38:06.774Z,13.70
2019-05-21T22:40:35.924Z,12.07
2019-05-21T22:43:05.550Z,12.60
2019-05-21T22:45:34.651Z,11.57
2019-05-21T22:48:03.893Z,12.03
2019-05-21T22:50:38.393Z,13.83
2019-05-21T22:53:08.872Z,12.30
2019-05-21T22:55:40.425Z,12.20
2019-05-21T22:58:09.479Z,15.33
2019-05-21T23:00:43.214Z,14.10
2019-05-21T23:03:18.459Z,13.67
2019-05-21T23:05:50.323Z,12.80
2019-05-21T23:08:25.178Z,14.03
2019-05-21T23:10:54.706Z,13.87
2019-05-21T23:13:25.338Z,12.80
2019-05-21T23:16:01.423Z,14.43
2019-05-21T23:18:33.798Z,14.43
2019-05-21T23:21:03.966Z,12.93
2019-05-21T23:23:37.999Z,13.00
2019-05-21T23:26:10.629Z,15.00
2019-05-21T23:28:40.892Z,16.70
2019-05-21T23:31:13.202Z,15.30
2019-05-21T23:33:44.813Z,13.47
2019-05-21T23:36:14.249Z,15.60
2019-05-21T23:38:43.590Z,15.20
2019-05-21T23:41:12.588Z,16.10
2019-05-21T23:43:42.269Z,16.20
2019-05-21T23:46:12.841Z,16.50
2019-05-21T23:48:43.513Z,15.73
2019-05-21T23:51:12.716Z,16.73
2019-05-21T23:53:41.826Z,17.07
2019-05-21T23:56:10.892Z,15.10
2019-05-21T23:58:39.986Z,17.07
